Aérodrome :
LOGIN :

S'inscrire | Disclaimer

   EN    FR    IT 

 










Légende :    VFR   VFR Marginal   IFR   IFR Intensif   IFR Très Intensif
Visi : 
Plafond : 
>= 8 km
>= 3000ft
5 à 8 km
1000 à 3000 ft
1500m à 5 km
500 à 1000 ft
800 à 1500m
200 à 500 ft
< 800m
< 200 ft
Symboles :   Orages  Brouillard  Fortes neiges  Fortes précipitations  Vent > 20 kt
SIGMETs :   Divers  Orages  Givrage  Turbulence  Onde Orograph.  Cendres Volcan.






- Altitude de l'aérodrome : 538 ft
- Code IATA : TNF


LFPN - Toussus Le Noble

DERNIER METAR :
  • 280700Z AUTO 24015KT 5000 -RA BR OVC007/// ///TCU 10/10 Q1006 TEMPO 25020G30KT

METARs EXPIRÉS :
  • 280630Z AUTO 23014KT 9999 -RA OVC006/// ///TCU 10/10 Q1006 TEMPO 25020G30KT 4000 -SHRA
  • 280600Z AUTO 23012KT 4900 RA BR OVC006/// ///CB 10/10 Q1006 TEMPO 25020G30KT NSW
  • 280530Z AUTO 24012KT 5000 RA BR OVC007/// ///CB 10/10 Q1007 TEMPO 25020G30KT NSW
  • 280500Z AUTO 24013KT 8000 -RA OVC006/// ///CB 10/10 Q1008
  • 280430Z AUTO 24012KT 9999 -DZ OVC005/// ///TCU 10/10 Q1008

TAF TAF LFPN
Valide du 28 à 06h jusqu'au 28 à 15h UTC


280500Z 2806/2815 24010G20KT 9999 BKN012
TEMPO 2806/2807 4000 RA BKN006TCU
PROB40
TEMPO 2807/2812 25020G30KT 4000 -SHRA BKN008TCU
PROB40
TEMPO 2813/2815 4000 -SHRA BKN008TCU
ATIS : +33 1 39 56 54 70



MET'MAP, la Météo Aéronautique d'un coup d'oeil ! - Copyright ORBIFLY Décembre 2007 - Disclaimer

ORBIFLY MET'MAP TEAM :

Programmation & Développement : Alexandra Zaïnal
Sur une idée originale de : Baudouin d'Aumeries
Assistance à la programmation : Marc-Olivier Méhu
Soutien technique & logistique : Manuel Goepfert

Contact : metmap@orbifly.com




SOURCES & CREDITS :

   NOAA